sensor_id;sensor_type;location;lat;lon;timestamp;P1;durP1;ratioP1;P2;durP2;ratioP2
24483;SDS011;12643;51.620;7.548;2022-11-12T00:01:21;16.17;;;8.77;;
24483;SDS011;12643;51.620;7.548;2022-11-12T00:03:49;17.85;;;8.18;;
24483;SDS011;12643;51.620;7.548;2022-11-12T00:06:17;10.45;;;7.28;;
24483;SDS011;12643;51.620;7.548;2022-11-12T00:08:45;16.52;;;8.70;;
24483;SDS011;12643;51.620;7.548;2022-11-12T00:11:12;15.07;;;7.90;;
24483;SDS011;12643;51.620;7.548;2022-11-12T00:13:43;14.05;;;7.40;;
24483;SDS011;12643;51.620;7.548;2022-11-12T00:16:10;15.48;;;7.78;;
24483;SDS011;12643;51.620;7.548;2022-11-12T00:18:40;13.02;;;7.85;;
24483;SDS011;12643;51.620;7.548;2022-11-12T00:21:09;12.48;;;7.38;;
24483;SDS011;12643;51.620;7.548;2022-11-12T00:23:37;11.50;;;6.80;;
24483;SDS011;12643;51.620;7.548;2022-11-12T00:26:05;14.40;;;7.22;;
24483;SDS011;12643;51.620;7.548;2022-11-12T00:28:33;12.60;;;7.50;;
24483;SDS011;12643;51.620;7.548;2022-11-12T00:31:07;13.70;;;7.53;;
24483;SDS011;12643;51.620;7.548;2022-11-12T00:33:40;14.48;;;8.02;;
24483;SDS011;12643;51.620;7.548;2022-11-12T00:36:09;18.00;;;7.43;;
24483;SDS011;12643;51.620;7.548;2022-11-12T00:38:38;11.30;;;7.30;;
24483;SDS011;12643;51.620;7.548;2022-11-12T00:41:13;13.13;;;6.60;;
24483;SDS011;12643;51.620;7.548;2022-11-12T00:43:41;10.82;;;6.22;;
24483;SDS011;12643;51.620;7.548;2022-11-12T00:46:20;11.93;;;6.43;;
24483;SDS011;12643;51.620;7.548;2022-11-12T00:48:51;14.60;;;6.45;;
24483;SDS011;12643;51.620;7.548;2022-11-12T00:51:20;11.45;;;5.93;;
24483;SDS011;12643;51.620;7.548;2022-11-12T00:53:48;9.10;;;5.82;;
24483;SDS011;12643;51.620;7.548;2022-11-12T00:56:18;12.30;;;6.43;;
24483;SDS011;12643;51.620;7.548;2022-11-12T00:58:46;11.65;;;6.82;;
24483;SDS011;12643;51.620;7.548;2022-11-12T01:01:16;9.65;;;5.93;;
24483;SDS011;12643;51.620;7.548;2022-11-12T01:03:45;11.45;;;5.68;;
24483;SDS011;12643;51.620;7.548;2022-11-12T01:06:15;10.88;;;5.80;;
24483;SDS011;12643;51.620;7.548;2022-11-12T01:11:14;10.30;;;5.88;;
24483;SDS011;12643;51.620;7.548;2022-11-12T01:13:44;11.48;;;6.72;;
24483;SDS011;12643;51.620;7.548;2022-11-12T01:16:16;14.07;;;6.18;;
24483;SDS011;12643;51.620;7.548;2022-11-12T01:18:45;11.90;;;6.93;;
24483;SDS011;12643;51.620;7.548;2022-11-12T01:21:17;13.25;;;6.93;;
24483;SDS011;12643;51.620;7.548;2022-11-12T01:23:46;12.35;;;7.13;;
24483;SDS011;12643;51.620;7.548;2022-11-12T01:26:14;10.80;;;6.75;;
24483;SDS011;12643;51.620;7.548;2022-11-12T01:28:44;10.38;;;6.13;;
24483;SDS011;12643;51.620;7.548;2022-11-12T01:31:13;10.15;;;5.70;;
24483;SDS011;12643;51.620;7.548;2022-11-12T01:33:46;10.88;;;5.47;;
24483;SDS011;12643;51.620;7.548;2022-11-12T01:36:16;7.25;;;5.15;;
24483;SDS011;12643;51.620;7.548;2022-11-12T01:38:46;8.27;;;5.17;;
24483;SDS011;12643;51.620;7.548;2022-11-12T01:41:19;7.25;;;4.75;;
24483;SDS011;12643;51.620;7.548;2022-11-12T01:46:40;9.13;;;4.38;;
24483;SDS011;12643;51.620;7.548;2022-11-12T01:49:13;6.70;;;4.90;;
24483;SDS011;12643;51.620;7.548;2022-11-12T01:51:49;7.18;;;4.90;;
24483;SDS011;12643;51.620;7.548;2022-11-12T01:54:20;5.95;;;4.10;;
24483;SDS011;12643;51.620;7.548;2022-11-12T01:56:49;7.15;;;4.40;;
24483;SDS011;12643;51.620;7.548;2022-11-12T01:59:24;7.78;;;5.03;;
24483;SDS011;12643;51.620;7.548;2022-11-12T02:02:03;10.10;;;5.85;;
24483;SDS011;12643;51.620;7.548;2022-11-12T02:04:31;7.47;;;4.78;;
24483;SDS011;12643;51.620;7.548;2022-11-12T02:07:02;6.20;;;4.93;;
24483;SDS011;12643;51.620;7.548;2022-11-12T02:09:32;9.32;;;6.22;;
24483;SDS011;12643;51.620;7.548;2022-11-12T02:12:00;10.07;;;6.15;;
24483;SDS011;12643;51.620;7.548;2022-11-12T02:14:28;9.95;;;5.78;;
24483;SDS011;12643;51.620;7.548;2022-11-12T02:16:55;7.72;;;5.13;;
24483;SDS011;12643;51.620;7.548;2022-11-12T02:19:26;7.30;;;5.40;;
24483;SDS011;12643;51.620;7.548;2022-11-12T02:21:55;8.00;;;5.32;;
24483;SDS011;12643;51.620;7.548;2022-11-12T02:24:31;9.77;;;6.13;;
24483;SDS011;12643;51.620;7.548;2022-11-12T02:27:01;7.97;;;5.65;;
24483;SDS011;12643;51.620;7.548;2022-11-12T02:29:31;9.02;;;5.55;;
24483;SDS011;12643;51.620;7.548;2022-11-12T02:31:59;9.07;;;5.32;;
24483;SDS011;12643;51.620;7.548;2022-11-12T02:34:28;6.88;;;4.78;;
24483;SDS011;12643;51.620;7.548;2022-11-12T02:37:00;9.07;;;6.10;;
24483;SDS011;12643;51.620;7.548;2022-11-12T02:39:29;8.25;;;6.30;;
24483;SDS011;12643;51.620;7.548;2022-11-12T02:41:59;7.15;;;5.38;;
24483;SDS011;12643;51.620;7.548;2022-11-12T02:44:27;9.10;;;6.53;;
24483;SDS011;12643;51.620;7.548;2022-11-12T02:46:55;8.77;;;6.20;;
24483;SDS011;12643;51.620;7.548;2022-11-12T02:49:23;8.43;;;6.45;;
24483;SDS011;12643;51.620;7.548;2022-11-12T02:51:51;10.57;;;6.70;;
24483;SDS011;12643;51.620;7.548;2022-11-12T02:54:21;8.32;;;6.10;;
24483;SDS011;12643;51.620;7.548;2022-11-12T02:56:49;9.20;;;6.53;;
24483;SDS011;12643;51.620;7.548;2022-11-12T02:59:17;10.95;;;7.25;;
24483;SDS011;12643;51.620;7.548;2022-11-12T03:01:45;10.85;;;6.22;;
24483;SDS011;12643;51.620;7.548;2022-11-12T03:04:13;10.98;;;7.25;;
24483;SDS011;12643;51.620;7.548;2022-11-12T03:06:42;9.48;;;6.68;;
24483;SDS011;12643;51.620;7.548;2022-11-12T03:09:10;12.80;;;8.50;;
24483;SDS011;12643;51.620;7.548;2022-11-12T03:11:40;10.82;;;7.47;;
24483;SDS011;12643;51.620;7.548;2022-11-12T03:14:08;11.93;;;7.80;;
24483;SDS011;12643;51.620;7.548;2022-11-12T03:16:36;9.88;;;7.20;;
24483;SDS011;12643;51.620;7.548;2022-11-12T03:19:04;14.43;;;8.48;;
24483;SDS011;12643;51.620;7.548;2022-11-12T03:21:32;12.60;;;7.45;;
24483;SDS011;12643;51.620;7.548;2022-11-12T03:24:00;11.75;;;7.55;;
24483;SDS011;12643;51.620;7.548;2022-11-12T03:26:28;11.43;;;7.50;;
24483;SDS011;12643;51.620;7.548;2022-11-12T03:29:02;19.65;;;7.65;;
24483;SDS011;12643;51.620;7.548;2022-11-12T03:31:31;12.88;;;7.88;;
24483;SDS011;12643;51.620;7.548;2022-11-12T03:34:00;10.10;;;7.28;;
24483;SDS011;12643;51.620;7.548;2022-11-12T03:36:28;12.23;;;6.97;;
24483;SDS011;12643;51.620;7.548;2022-11-12T03:38:56;13.70;;;7.40;;
24483;SDS011;12643;51.620;7.548;2022-11-12T03:41:24;11.73;;;7.20;;
24483;SDS011;12643;51.620;7.548;2022-11-12T03:43:52;14.93;;;8.10;;
24483;SDS011;12643;51.620;7.548;2022-11-12T03:46:21;13.45;;;7.75;;
24483;SDS011;12643;51.620;7.548;2022-11-12T03:48:49;11.50;;;7.88;;
24483;SDS011;12643;51.620;7.548;2022-11-12T03:51:17;12.43;;;7.97;;
24483;SDS011;12643;51.620;7.548;2022-11-12T03:53:45;10.93;;;7.88;;
24483;SDS011;12643;51.620;7.548;2022-11-12T03:56:13;13.20;;;7.13;;
24483;SDS011;12643;51.620;7.548;2022-11-12T03:58:42;12.35;;;8.05;;
24483;SDS011;12643;51.620;7.548;2022-11-12T04:01:10;12.60;;;8.30;;
24483;SDS011;12643;51.620;7.548;2022-11-12T04:03:41;10.77;;;7.75;;
24483;SDS011;12643;51.620;7.548;2022-11-12T04:06:10;11.55;;;8.02;;
24483;SDS011;12643;51.620;7.548;2022-11-12T04:08:55;14.85;;;8.38;;
24483;SDS011;12643;51.620;7.548;2022-11-12T04:11:23;13.93;;;9.05;;
24483;SDS011;12643;51.620;7.548;2022-11-12T04:13:51;15.43;;;8.55;;
24483;SDS011;12643;51.620;7.548;2022-11-12T04:16:19;13.82;;;8.95;;
24483;SDS011;12643;51.620;7.548;2022-11-12T04:19:08;14.75;;;8.80;;
24483;SDS011;12643;51.620;7.548;2022-11-12T04:21:58;18.02;;;9.07;;
24483;SDS011;12643;51.620;7.548;2022-11-12T04:24:28;12.88;;;8.48;;
24483;SDS011;12643;51.620;7.548;2022-11-12T04:27:14;11.50;;;7.13;;
24483;SDS011;12643;51.620;7.548;2022-11-12T04:29:45;10.20;;;6.95;;
24483;SDS011;12643;51.620;7.548;2022-11-12T04:32:32;9.57;;;6.85;;
24483;SDS011;12643;51.620;7.548;2022-11-12T04:35:04;12.77;;;6.75;;
24483;SDS011;12643;51.620;7.548;2022-11-12T04:37:34;11.80;;;7.22;;
24483;SDS011;12643;51.620;7.548;2022-11-12T04:40:13;12.10;;;6.82;;
24483;SDS011;12643;51.620;7.548;2022-11-12T04:42:55;13.82;;;7.88;;
24483;SDS011;12643;51.620;7.548;2022-11-12T04:45:41;10.32;;;6.57;;
24483;SDS011;12643;51.620;7.548;2022-11-12T04:48:10;10.13;;;6.65;;
24483;SDS011;12643;51.620;7.548;2022-11-12T04:50:41;11.63;;;6.93;;
24483;SDS011;12643;51.620;7.548;2022-11-12T04:53:11;12.73;;;6.88;;
24483;SDS011;12643;51.620;7.548;2022-11-12T04:55:39;9.15;;;6.90;;
24483;SDS011;12643;51.620;7.548;2022-11-12T04:58:09;11.55;;;7.63;;
24483;SDS011;12643;51.620;7.548;2022-11-12T05:00:37;9.90;;;8.30;;
24483;SDS011;12643;51.620;7.548;2022-11-12T05:03:05;10.80;;;8.05;;
24483;SDS011;12643;51.620;7.548;2022-11-12T05:05:36;11.35;;;7.45;;
24483;SDS011;12643;51.620;7.548;2022-11-12T05:08:06;12.85;;;7.57;;
24483;SDS011;12643;51.620;7.548;2022-11-12T05:10:34;12.70;;;7.57;;
24483;SDS011;12643;51.620;7.548;2022-11-12T05:13:02;9.98;;;6.60;;
24483;SDS011;12643;51.620;7.548;2022-11-12T05:15:30;8.82;;;6.35;;
24483;SDS011;12643;51.620;7.548;2022-11-12T05:17:59;8.85;;;6.78;;
24483;SDS011;12643;51.620;7.548;2022-11-12T05:20:27;10.07;;;7.57;;
24483;SDS011;12643;51.620;7.548;2022-11-12T05:22:55;11.50;;;7.57;;
24483;SDS011;12643;51.620;7.548;2022-11-12T05:25:23;12.05;;;7.68;;
24483;SDS011;12643;51.620;7.548;2022-11-12T05:27:51;11.13;;;7.20;;
24483;SDS011;12643;51.620;7.548;2022-11-12T05:30:19;11.45;;;6.82;;
24483;SDS011;12643;51.620;7.548;2022-11-12T05:32:47;9.32;;;6.35;;
24483;SDS011;12643;51.620;7.548;2022-11-12T05:35:19;10.48;;;6.70;;
24483;SDS011;12643;51.620;7.548;2022-11-12T05:37:47;13.20;;;7.65;;
24483;SDS011;12643;51.620;7.548;2022-11-12T05:40:15;11.80;;;7.63;;
24483;SDS011;12643;51.620;7.548;2022-11-12T05:42:44;12.00;;;7.80;;
24483;SDS011;12643;51.620;7.548;2022-11-12T05:45:13;13.13;;;8.00;;
24483;SDS011;12643;51.620;7.548;2022-11-12T05:47:40;12.50;;;7.78;;
24483;SDS011;12643;51.620;7.548;2022-11-12T05:50:09;10.63;;;8.70;;
24483;SDS011;12643;51.620;7.548;2022-11-12T05:52:37;13.68;;;9.23;;
24483;SDS011;12643;51.620;7.548;2022-11-12T05:55:06;10.70;;;8.00;;
24483;SDS011;12643;51.620;7.548;2022-11-12T05:57:35;13.55;;;7.72;;
24483;SDS011;12643;51.620;7.548;2022-11-12T06:00:06;12.10;;;7.60;;
24483;SDS011;12643;51.620;7.548;2022-11-12T06:02:36;13.43;;;8.25;;
24483;SDS011;12643;51.620;7.548;2022-11-12T06:05:05;13.98;;;8.10;;
24483;SDS011;12643;51.620;7.548;2022-11-12T06:07:34;10.35;;;7.82;;
24483;SDS011;12643;51.620;7.548;2022-11-12T06:10:02;13.02;;;7.90;;
24483;SDS011;12643;51.620;7.548;2022-11-12T06:12:30;12.18;;;8.07;;
24483;SDS011;12643;51.620;7.548;2022-11-12T06:14:58;15.82;;;8.80;;
24483;SDS011;12643;51.620;7.548;2022-11-12T06:17:28;11.32;;;8.55;;
24483;SDS011;12643;51.620;7.548;2022-11-12T06:19:57;14.07;;;9.30;;
24483;SDS011;12643;51.620;7.548;2022-11-12T06:22:26;11.98;;;8.10;;
24483;SDS011;12643;51.620;7.548;2022-11-12T06:24:53;10.38;;;7.50;;
24483;SDS011;12643;51.620;7.548;2022-11-12T06:27:21;10.35;;;8.07;;
24483;SDS011;12643;51.620;7.548;2022-11-12T06:29:49;11.20;;;7.82;;
24483;SDS011;12643;51.620;7.548;2022-11-12T06:32:19;11.82;;;8.43;;
24483;SDS011;12643;51.620;7.548;2022-11-12T06:34:48;11.02;;;8.07;;
24483;SDS011;12643;51.620;7.548;2022-11-12T06:37:18;11.63;;;7.87;;
24483;SDS011;12643;51.620;7.548;2022-11-12T06:39:49;12.52;;;8.00;;
24483;SDS011;12643;51.620;7.548;2022-11-12T06:42:17;16.60;;;9.27;;
24483;SDS011;12643;51.620;7.548;2022-11-12T06:44:45;17.05;;;9.15;;
24483;SDS011;12643;51.620;7.548;2022-11-12T06:47:13;17.92;;;9.98;;
24483;SDS011;12643;51.620;7.548;2022-11-12T06:49:41;14.13;;;9.65;;
24483;SDS011;12643;51.620;7.548;2022-11-12T06:52:12;13.35;;;9.07;;
24483;SDS011;12643;51.620;7.548;2022-11-12T06:54:41;12.68;;;7.90;;
24483;SDS011;12643;51.620;7.548;2022-11-12T06:57:10;12.52;;;8.65;;
24483;SDS011;12643;51.620;7.548;2022-11-12T06:59:38;12.00;;;8.48;;
24483;SDS011;12643;51.620;7.548;2022-11-12T07:02:06;11.70;;;8.45;;
24483;SDS011;12643;51.620;7.548;2022-11-12T07:04:38;12.30;;;8.15;;
24483;SDS011;12643;51.620;7.548;2022-11-12T07:07:10;14.57;;;8.77;;
24483;SDS011;12643;51.620;7.548;2022-11-12T07:09:38;11.80;;;7.85;;
24483;SDS011;12643;51.620;7.548;2022-11-12T07:12:06;13.48;;;8.23;;
24483;SDS011;12643;51.620;7.548;2022-11-12T07:14:34;10.20;;;7.40;;
24483;SDS011;12643;51.620;7.548;2022-11-12T07:17:02;12.85;;;8.95;;
24483;SDS011;12643;51.620;7.548;2022-11-12T07:19:30;14.05;;;9.75;;
24483;SDS011;12643;51.620;7.548;2022-11-12T07:21:58;13.18;;;9.10;;
24483;SDS011;12643;51.620;7.548;2022-11-12T07:24:28;16.20;;;9.75;;
24483;SDS011;12643;51.620;7.548;2022-11-12T07:26:56;13.80;;;9.43;;
24483;SDS011;12643;51.620;7.548;2022-11-12T07:29:24;13.38;;;9.05;;
24483;SDS011;12643;51.620;7.548;2022-11-12T07:31:54;12.65;;;8.45;;
24483;SDS011;12643;51.620;7.548;2022-11-12T07:34:22;12.90;;;8.45;;
24483;SDS011;12643;51.620;7.548;2022-11-12T07:36:51;14.82;;;9.02;;
24483;SDS011;12643;51.620;7.548;2022-11-12T07:39:21;11.45;;;8.77;;
24483;SDS011;12643;51.620;7.548;2022-11-12T07:42:05;15.23;;;8.75;;
24483;SDS011;12643;51.620;7.548;2022-11-12T07:44:33;12.02;;;8.52;;
24483;SDS011;12643;51.620;7.548;2022-11-12T07:47:04;16.48;;;11.00;;
24483;SDS011;12643;51.620;7.548;2022-11-12T07:49:32;18.45;;;9.75;;
24483;SDS011;12643;51.620;7.548;2022-11-12T07:52:01;16.65;;;10.00;;
24483;SDS011;12643;51.620;7.548;2022-11-12T07:54:33;14.20;;;9.93;;
24483;SDS011;12643;51.620;7.548;2022-11-12T07:57:05;17.08;;;9.63;;
24483;SDS011;12643;51.620;7.548;2022-11-12T07:59:34;14.00;;;9.70;;
24483;SDS011;12643;51.620;7.548;2022-11-12T08:02:03;15.00;;;9.57;;
24483;SDS011;12643;51.620;7.548;2022-11-12T08:04:34;16.05;;;10.00;;
24483;SDS011;12643;51.620;7.548;2022-11-12T08:07:03;14.95;;;9.25;;
24483;SDS011;12643;51.620;7.548;2022-11-12T08:09:31;12.60;;;8.88;;
24483;SDS011;12643;51.620;7.548;2022-11-12T08:12:00;17.58;;;10.23;;
24483;SDS011;12643;51.620;7.548;2022-11-12T08:14:33;16.38;;;10.27;;
24483;SDS011;12643;51.620;7.548;2022-11-12T08:17:01;20.42;;;10.98;;
24483;SDS011;12643;51.620;7.548;2022-11-12T08:19:29;16.63;;;10.40;;
24483;SDS011;12643;51.620;7.548;2022-11-12T08:21:57;18.15;;;11.38;;
24483;SDS011;12643;51.620;7.548;2022-11-12T08:24:25;14.60;;;10.18;;
24483;SDS011;12643;51.620;7.548;2022-11-12T08:26:55;18.52;;;10.95;;
24483;SDS011;12643;51.620;7.548;2022-11-12T08:29:23;16.92;;;10.52;;
24483;SDS011;12643;51.620;7.548;2022-11-12T08:31:57;14.85;;;10.50;;
24483;SDS011;12643;51.620;7.548;2022-11-12T08:34:25;17.83;;;11.10;;
24483;SDS011;12643;51.620;7.548;2022-11-12T08:36:53;18.83;;;10.80;;
24483;SDS011;12643;51.620;7.548;2022-11-12T08:39:21;15.75;;;10.52;;
24483;SDS011;12643;51.620;7.548;2022-11-12T08:41:49;17.90;;;14.20;;
24483;SDS011;12643;51.620;7.548;2022-11-12T08:44:17;17.92;;;13.80;;
24483;SDS011;12643;51.620;7.548;2022-11-12T08:46:49;20.35;;;13.60;;
24483;SDS011;12643;51.620;7.548;2022-11-12T08:49:22;17.85;;;13.07;;
24483;SDS011;12643;51.620;7.548;2022-11-12T08:51:50;19.85;;;13.35;;
24483;SDS011;12643;51.620;7.548;2022-11-12T08:54:18;19.50;;;12.90;;
24483;SDS011;12643;51.620;7.548;2022-11-12T08:56:48;20.00;;;12.55;;
24483;SDS011;12643;51.620;7.548;2022-11-12T08:59:16;16.83;;;11.63;;
24483;SDS011;12643;51.620;7.548;2022-11-12T09:01:44;13.02;;;10.32;;
24483;SDS011;12643;51.620;7.548;2022-11-12T09:04:12;15.77;;;10.23;;
24483;SDS011;12643;51.620;7.548;2022-11-12T09:06:41;14.00;;;10.38;;
24483;SDS011;12643;51.620;7.548;2022-11-12T09:09:09;14.93;;;10.80;;
24483;SDS011;12643;51.620;7.548;2022-11-12T09:11:37;19.63;;;12.32;;
24483;SDS011;12643;51.620;7.548;2022-11-12T09:14:05;19.38;;;11.52;;
24483;SDS011;12643;51.620;7.548;2022-11-12T09:16:33;14.73;;;11.45;;
24483;SDS011;12643;51.620;7.548;2022-11-12T09:19:01;21.65;;;14.15;;
24483;SDS011;12643;51.620;7.548;2022-11-12T09:21:33;25.15;;;13.68;;
24483;SDS011;12643;51.620;7.548;2022-11-12T09:24:06;24.40;;;14.57;;
24483;SDS011;12643;51.620;7.548;2022-11-12T09:26:52;24.80;;;14.13;;
24483;SDS011;12643;51.620;7.548;2022-11-12T09:29:41;17.52;;;11.32;;
24483;SDS011;12643;51.620;7.548;2022-11-12T09:32:09;16.70;;;10.02;;
24483;SDS011;12643;51.620;7.548;2022-11-12T09:34:37;20.33;;;11.23;;
24483;SDS011;12643;51.620;7.548;2022-11-12T09:37:05;15.88;;;10.73;;
24483;SDS011;12643;51.620;7.548;2022-11-12T09:39:36;16.42;;;10.60;;
24483;SDS011;12643;51.620;7.548;2022-11-12T09:42:05;13.68;;;10.80;;
24483;SDS011;12643;51.620;7.548;2022-11-12T09:44:34;13.32;;;10.35;;
24483;SDS011;12643;51.620;7.548;2022-11-12T09:47:08;12.02;;;8.98;;
24483;SDS011;12643;51.620;7.548;2022-11-12T09:49:44;12.88;;;9.52;;
24483;SDS011;12643;51.620;7.548;2022-11-12T09:52:17;15.90;;;9.98;;
24483;SDS011;12643;51.620;7.548;2022-11-12T09:54:51;14.82;;;10.50;;
24483;SDS011;12643;51.620;7.548;2022-11-12T09:57:27;14.50;;;10.15;;
24483;SDS011;12643;51.620;7.548;2022-11-12T09:59:58;13.18;;;10.02;;
24483;SDS011;12643;51.620;7.548;2022-11-12T10:02:30;19.15;;;10.63;;
24483;SDS011;12643;51.620;7.548;2022-11-12T10:05:16;15.93;;;11.07;;
24483;SDS011;12643;51.620;7.548;2022-11-12T10:07:55;16.20;;;10.50;;
24483;SDS011;12643;51.620;7.548;2022-11-12T10:10:39;18.50;;;11.55;;
24483;SDS011;12643;51.620;7.548;2022-11-12T10:13:19;15.48;;;10.88;;
24483;SDS011;12643;51.620;7.548;2022-11-12T10:19:14;13.07;;;9.13;;
24483;SDS011;12643;51.620;7.548;2022-11-12T10:21:53;12.70;;;8.25;;
24483;SDS011;12643;51.620;7.548;2022-11-12T10:24:34;11.43;;;8.35;;
24483;SDS011;12643;51.620;7.548;2022-11-12T10:27:11;11.90;;;8.63;;
24483;SDS011;12643;51.620;7.548;2022-11-12T10:29:45;13.60;;;9.02;;
24483;SDS011;12643;51.620;7.548;2022-11-12T10:32:22;16.50;;;9.43;;
24483;SDS011;12643;51.620;7.548;2022-11-12T10:34:51;13.00;;;8.23;;
24483;SDS011;12643;51.620;7.548;2022-11-12T10:37:21;12.32;;;8.80;;
24483;SDS011;12643;51.620;7.548;2022-11-12T10:39:51;12.40;;;7.25;;
24483;SDS011;12643;51.620;7.548;2022-11-12T10:42:27;9.93;;;7.80;;
24483;SDS011;12643;51.620;7.548;2022-11-12T10:44:57;13.93;;;8.50;;
24483;SDS011;12643;51.620;7.548;2022-11-12T10:47:45;10.07;;;7.60;;
24483;SDS011;12643;51.620;7.548;2022-11-12T10:50:19;8.30;;;6.90;;
24483;SDS011;12643;51.620;7.548;2022-11-12T10:52:54;10.07;;;6.82;;
24483;SDS011;12643;51.620;7.548;2022-11-12T10:55:26;13.77;;;6.80;;
24483;SDS011;12643;51.620;7.548;2022-11-12T10:58:16;8.45;;;6.38;;
24483;SDS011;12643;51.620;7.548;2022-11-12T11:00:55;21.90;;;11.95;;
24483;SDS011;12643;51.620;7.548;2022-11-12T11:03:26;29.75;;;16.33;;
24483;SDS011;12643;51.620;7.548;2022-11-12T11:08:36;12.35;;;7.50;;
24483;SDS011;12643;51.620;7.548;2022-11-12T11:11:16;11.90;;;6.78;;
24483;SDS011;12643;51.620;7.548;2022-11-12T11:13:54;10.27;;;6.80;;
24483;SDS011;12643;51.620;7.548;2022-11-12T11:16:27;11.20;;;7.25;;
24483;SDS011;12643;51.620;7.548;2022-11-12T11:18:59;10.85;;;6.72;;
24483;SDS011;12643;51.620;7.548;2022-11-12T11:21:46;11.60;;;6.88;;
24483;SDS011;12643;51.620;7.548;2022-11-12T11:24:30;12.18;;;7.68;;
24483;SDS011;12643;51.620;7.548;2022-11-12T11:27:07;9.95;;;6.22;;
24483;SDS011;12643;51.620;7.548;2022-11-12T11:32:46;8.35;;;6.07;;
24483;SDS011;12643;51.620;7.548;2022-11-12T11:35:44;9.15;;;6.47;;
24483;SDS011;12643;51.620;7.548;2022-11-12T11:38:30;8.27;;;6.15;;
24483;SDS011;12643;51.620;7.548;2022-11-12T11:41:08;8.15;;;6.55;;
24483;SDS011;12643;51.620;7.548;2022-11-12T11:46:22;6.97;;;5.22;;
24483;SDS011;12643;51.620;7.548;2022-11-12T11:49:24;5.35;;;4.85;;
24483;SDS011;12643;51.620;7.548;2022-11-12T11:52:16;9.57;;;5.55;;
24483;SDS011;12643;51.620;7.548;2022-11-12T11:55:05;8.73;;;6.18;;
24483;SDS011;12643;51.620;7.548;2022-11-12T11:57:44;7.10;;;5.47;;
24483;SDS011;12643;51.620;7.548;2022-11-12T12:00:21;11.07;;;5.95;;
24483;SDS011;12643;51.620;7.548;2022-11-12T12:03:02;7.15;;;5.72;;
24483;SDS011;12643;51.620;7.548;2022-11-12T12:05:45;10.23;;;5.95;;
24483;SDS011;12643;51.620;7.548;2022-11-12T12:08:23;8.32;;;5.10;;
24483;SDS011;12643;51.620;7.548;2022-11-12T12:11:01;8.82;;;4.93;;
24483;SDS011;12643;51.620;7.548;2022-11-12T12:13:35;6.18;;;4.15;;
24483;SDS011;12643;51.620;7.548;2022-11-12T12:19:10;5.35;;;4.30;;
24483;SDS011;12643;51.620;7.548;2022-11-12T12:21:53;7.55;;;4.05;;
24483;SDS011;12643;51.620;7.548;2022-11-12T12:24:29;5.32;;;4.40;;
24483;SDS011;12643;51.620;7.548;2022-11-12T12:27:03;6.65;;;4.43;;
24483;SDS011;12643;51.620;7.548;2022-11-12T12:29:46;5.32;;;4.10;;
24483;SDS011;12643;51.620;7.548;2022-11-12T12:32:18;8.10;;;4.82;;
24483;SDS011;12643;51.620;7.548;2022-11-12T12:34:55;7.68;;;4.35;;
24483;SDS011;12643;51.620;7.548;2022-11-12T12:37:30;6.20;;;4.40;;
24483;SDS011;12643;51.620;7.548;2022-11-12T12:40:03;5.45;;;3.88;;
24483;SDS011;12643;51.620;7.548;2022-11-12T12:42:41;5.70;;;4.15;;
24483;SDS011;12643;51.620;7.548;2022-11-12T12:45:33;7.82;;;3.80;;
24483;SDS011;12643;51.620;7.548;2022-11-12T12:48:06;7.10;;;3.95;;
24483;SDS011;12643;51.620;7.548;2022-11-12T12:50:41;12.15;;;3.90;;
24483;SDS011;12643;51.620;7.548;2022-11-12T12:56:01;9.02;;;6.32;;
24483;SDS011;12643;51.620;7.548;2022-11-12T12:58:30;10.93;;;6.30;;
24483;SDS011;12643;51.620;7.548;2022-11-12T13:01:02;7.65;;;5.38;;
24483;SDS011;12643;51.620;7.548;2022-11-12T13:03:43;8.73;;;5.25;;
24483;SDS011;12643;51.620;7.548;2022-11-12T13:06:28;10.23;;;6.55;;
24483;SDS011;12643;51.620;7.548;2022-11-12T13:09:00;8.88;;;5.57;;
24483;SDS011;12643;51.620;7.548;2022-11-12T13:14:44;8.80;;;6.82;;
24483;SDS011;12643;51.620;7.548;2022-11-12T13:17:44;8.50;;;6.47;;
24483;SDS011;12643;51.620;7.548;2022-11-12T13:26:45;7.75;;;6.22;;
24483;SDS011;12643;51.620;7.548;2022-11-12T13:38:02;10.43;;;6.22;;
24483;SDS011;12643;51.620;7.548;2022-11-12T13:40:38;10.80;;;6.07;;
24483;SDS011;12643;51.620;7.548;2022-11-12T13:43:26;11.93;;;5.78;;
24483;SDS011;12643;51.620;7.548;2022-11-12T13:46:02;9.77;;;5.25;;
24483;SDS011;12643;51.620;7.548;2022-11-12T13:48:45;8.82;;;5.75;;
24483;SDS011;12643;51.620;7.548;2022-11-12T13:51:15;7.10;;;5.07;;
24483;SDS011;12643;51.620;7.548;2022-11-12T13:53:46;8.55;;;5.88;;
24483;SDS011;12643;51.620;7.548;2022-11-12T13:56:22;9.38;;;6.35;;
24483;SDS011;12643;51.620;7.548;2022-11-12T13:58:57;10.90;;;5.45;;
24483;SDS011;12643;51.620;7.548;2022-11-12T14:01:38;6.28;;;4.78;;
24483;SDS011;12643;51.620;7.548;2022-11-12T14:04:09;7.45;;;5.70;;
24483;SDS011;12643;51.620;7.548;2022-11-12T14:06:44;9.43;;;5.70;;
24483;SDS011;12643;51.620;7.548;2022-11-12T14:12:04;7.65;;;5.32;;
24483;SDS011;12643;51.620;7.548;2022-11-12T14:14:56;7.55;;;5.60;;
24483;SDS011;12643;51.620;7.548;2022-11-12T14:17:33;8.95;;;5.45;;
24483;SDS011;12643;51.620;7.548;2022-11-12T14:22:52;9.90;;;5.70;;
24483;SDS011;12643;51.620;7.548;2022-11-12T14:25:21;6.63;;;4.90;;
24483;SDS011;12643;51.620;7.548;2022-11-12T14:27:50;13.18;;;8.18;;
24483;SDS011;12643;51.620;7.548;2022-11-12T14:30:21;13.00;;;8.40;;
24483;SDS011;12643;51.620;7.548;2022-11-12T14:32:51;10.15;;;7.55;;
24483;SDS011;12643;51.620;7.548;2022-11-12T14:35:27;10.77;;;6.32;;
24483;SDS011;12643;51.620;7.548;2022-11-12T14:37:58;8.77;;;6.88;;
24483;SDS011;12643;51.620;7.548;2022-11-12T14:40:37;10.75;;;6.28;;
24483;SDS011;12643;51.620;7.548;2022-11-12T14:46:05;5.45;;;4.53;;
24483;SDS011;12643;51.620;7.548;2022-11-12T14:48:36;7.57;;;4.70;;
24483;SDS011;12643;51.620;7.548;2022-11-12T14:51:15;6.93;;;4.65;;
24483;SDS011;12643;51.620;7.548;2022-11-12T14:53:44;6.82;;;4.65;;
24483;SDS011;12643;51.620;7.548;2022-11-12T14:56:21;6.45;;;4.22;;
24483;SDS011;12643;51.620;7.548;2022-11-12T14:58:52;6.95;;;5.13;;
24483;SDS011;12643;51.620;7.548;2022-11-12T15:01:24;27.67;;;17.65;;
24483;SDS011;12643;51.620;7.548;2022-11-12T15:04:03;59.40;;;32.97;;
24483;SDS011;12643;51.620;7.548;2022-11-12T15:06:52;46.70;;;22.42;;
24483;SDS011;12643;51.620;7.548;2022-11-12T15:09:36;31.75;;;16.02;;
24483;SDS011;12643;51.620;7.548;2022-11-12T15:12:04;22.30;;;9.50;;
24483;SDS011;12643;51.620;7.548;2022-11-12T15:17:05;9.27;;;5.50;;
24483;SDS011;12643;51.620;7.548;2022-11-12T15:19:44;8.52;;;5.90;;
24483;SDS011;12643;51.620;7.548;2022-11-12T15:22:17;8.18;;;5.07;;
24483;SDS011;12643;51.620;7.548;2022-11-12T15:24:47;7.93;;;5.20;;
24483;SDS011;12643;51.620;7.548;2022-11-12T15:27:32;8.32;;;5.13;;
24483;SDS011;12643;51.620;7.548;2022-11-12T15:30:15;11.02;;;5.32;;
24483;SDS011;12643;51.620;7.548;2022-11-12T15:32:47;7.72;;;5.38;;
24483;SDS011;12643;51.620;7.548;2022-11-12T15:35:31;10.52;;;5.20;;
24483;SDS011;12643;51.620;7.548;2022-11-12T15:38:02;7.95;;;5.13;;
24483;SDS011;12643;51.620;7.548;2022-11-12T15:40:39;9.73;;;5.53;;
24483;SDS011;12643;51.620;7.548;2022-11-12T15:43:11;9.02;;;5.10;;
24483;SDS011;12643;51.620;7.548;2022-11-12T15:45:41;7.05;;;4.82;;
24483;SDS011;12643;51.620;7.548;2022-11-12T15:48:14;8.27;;;4.60;;
24483;SDS011;12643;51.620;7.548;2022-11-12T15:50:42;10.27;;;5.00;;
24483;SDS011;12643;51.620;7.548;2022-11-12T15:53:11;6.85;;;4.38;;
24483;SDS011;12643;51.620;7.548;2022-11-12T15:55:39;7.07;;;4.40;;
24483;SDS011;12643;51.620;7.548;2022-11-12T15:58:10;8.15;;;5.35;;